sensor_id;sensor_type;location;lat;lon;timestamp;P1;durP1;ratioP1;P2;durP2;ratioP2
5967;SDS011;3010;51.028;4.170;2023-05-16T00:01:17;10.30;;;3.33;;
5967;SDS011;3010;51.028;4.170;2023-05-16T00:03:44;8.80;;;3.07;;
5967;SDS011;3010;51.028;4.170;2023-05-16T00:06:10;8.63;;;3.40;;
5967;SDS011;3010;51.028;4.170;2023-05-16T00:08:37;11.17;;;3.20;;
5967;SDS011;3010;51.028;4.170;2023-05-16T00:11:03;9.07;;;3.20;;
5967;SDS011;3010;51.028;4.170;2023-05-16T00:13:30;7.93;;;2.63;;
5967;SDS011;3010;51.028;4.170;2023-05-16T00:15:57;12.40;;;3.13;;
5967;SDS011;3010;51.028;4.170;2023-05-16T00:18:23;8.40;;;3.30;;
5967;SDS011;3010;51.028;4.170;2023-05-16T00:20:50;5.85;;;3.58;;
5967;SDS011;3010;51.028;4.170;2023-05-16T00:23:16;9.70;;;2.87;;
5967;SDS011;3010;51.028;4.170;2023-05-16T00:25:43;8.00;;;2.60;;
5967;SDS011;3010;51.028;4.170;2023-05-16T00:28:09;4.73;;;3.00;;
5967;SDS011;3010;51.028;4.170;2023-05-16T00:30:36;4.10;;;2.43;;
5967;SDS011;3010;51.028;4.170;2023-05-16T00:33:03;11.60;;;3.67;;
5967;SDS011;3010;51.028;4.170;2023-05-16T00:35:29;11.82;;;3.50;;
5967;SDS011;3010;51.028;4.170;2023-05-16T00:37:56;8.60;;;3.13;;
5967;SDS011;3010;51.028;4.170;2023-05-16T00:40:22;10.63;;;2.67;;
5967;SDS011;3010;51.028;4.170;2023-05-16T00:42:49;4.87;;;2.80;;
5967;SDS011;3010;51.028;4.170;2023-05-16T00:45:16;9.03;;;2.90;;
5967;SDS011;3010;51.028;4.170;2023-05-16T00:47:42;15.23;;;4.33;;
5967;SDS011;3010;51.028;4.170;2023-05-16T00:50:09;19.57;;;7.13;;
5967;SDS011;3010;51.028;4.170;2023-05-16T00:52:35;15.83;;;4.77;;
5967;SDS011;3010;51.028;4.170;2023-05-16T00:55:02;12.07;;;3.60;;
5967;SDS011;3010;51.028;4.170;2023-05-16T00:57:29;5.80;;;3.07;;
5967;SDS011;3010;51.028;4.170;2023-05-16T00:59:55;9.83;;;3.13;;
5967;SDS011;3010;51.028;4.170;2023-05-16T01:02:22;8.60;;;2.77;;
5967;SDS011;3010;51.028;4.170;2023-05-16T01:04:48;9.53;;;2.90;;
5967;SDS011;3010;51.028;4.170;2023-05-16T01:07:15;10.25;;;3.65;;
5967;SDS011;3010;51.028;4.170;2023-05-16T01:09:41;9.00;;;2.97;;
5967;SDS011;3010;51.028;4.170;2023-05-16T01:12:22;10.60;;;3.30;;
5967;SDS011;3010;51.028;4.170;2023-05-16T01:14:58;5.27;;;2.50;;
5967;SDS011;3010;51.028;4.170;2023-05-16T01:20:27;11.23;;;3.20;;
5967;SDS011;3010;51.028;4.170;2023-05-16T01:23:04;9.80;;;3.30;;
5967;SDS011;3010;51.028;4.170;2023-05-16T01:25:45;8.17;;;3.00;;
5967;SDS011;3010;51.028;4.170;2023-05-16T01:28:23;13.33;;;2.67;;
5967;SDS011;3010;51.028;4.170;2023-05-16T01:30:50;6.67;;;2.37;;
5967;SDS011;3010;51.028;4.170;2023-05-16T01:33:17;6.77;;;2.60;;
5967;SDS011;3010;51.028;4.170;2023-05-16T01:35:55;11.23;;;2.90;;
5967;SDS011;3010;51.028;4.170;2023-05-16T01:38:11;10.23;;;2.60;;
5967;SDS011;3010;51.028;4.170;2023-05-16T01:43:28;7.70;;;2.67;;
5967;SDS011;3010;51.028;4.170;2023-05-16T01:45:54;14.17;;;2.53;;
5967;SDS011;3010;51.028;4.170;2023-05-16T01:48:20;9.33;;;2.23;;
5967;SDS011;3010;51.028;4.170;2023-05-16T01:50:45;5.37;;;2.83;;
5967;SDS011;3010;51.028;4.170;2023-05-16T01:53:14;12.18;;;3.87;;
5967;SDS011;3010;51.028;4.170;2023-05-16T01:55:52;7.57;;;3.40;;
5967;SDS011;3010;51.028;4.170;2023-05-16T01:58:19;6.93;;;2.80;;
5967;SDS011;3010;51.028;4.170;2023-05-16T02:00:45;12.77;;;2.93;;
5967;SDS011;3010;51.028;4.170;2023-05-16T02:03:11;10.53;;;3.37;;
5967;SDS011;3010;51.028;4.170;2023-05-16T02:05:38;9.63;;;3.20;;
5967;SDS011;3010;51.028;4.170;2023-05-16T02:08:04;6.90;;;3.27;;
5967;SDS011;3010;51.028;4.170;2023-05-16T02:10:31;7.40;;;3.07;;
5967;SDS011;3010;51.028;4.170;2023-05-16T02:12:57;5.37;;;3.00;;
5967;SDS011;3010;51.028;4.170;2023-05-16T02:15:24;4.00;;;2.50;;
5967;SDS011;3010;51.028;4.170;2023-05-16T02:17:51;5.63;;;3.03;;
5967;SDS011;3010;51.028;4.170;2023-05-16T02:20:17;7.07;;;2.77;;
5967;SDS011;3010;51.028;4.170;2023-05-16T02:22:44;8.10;;;3.87;;
5967;SDS011;3010;51.028;4.170;2023-05-16T02:25:10;10.17;;;2.93;;
5967;SDS011;3010;51.028;4.170;2023-05-16T02:27:37;5.63;;;3.20;;
5967;SDS011;3010;51.028;4.170;2023-05-16T02:30:04;10.43;;;3.03;;
5967;SDS011;3010;51.028;4.170;2023-05-16T02:32:31;6.13;;;3.23;;
5967;SDS011;3010;51.028;4.170;2023-05-16T02:34:57;6.87;;;2.83;;
5967;SDS011;3010;51.028;4.170;2023-05-16T02:37:23;4.83;;;3.00;;
5967;SDS011;3010;51.028;4.170;2023-05-16T02:39:50;7.10;;;2.70;;
5967;SDS011;3010;51.028;4.170;2023-05-16T02:42:16;12.67;;;3.53;;
5967;SDS011;3010;51.028;4.170;2023-05-16T02:44:43;9.67;;;3.33;;
5967;SDS011;3010;51.028;4.170;2023-05-16T02:47:10;6.53;;;3.50;;
5967;SDS011;3010;51.028;4.170;2023-05-16T02:49:36;7.87;;;3.20;;
5967;SDS011;3010;51.028;4.170;2023-05-16T02:52:03;8.20;;;3.07;;
5967;SDS011;3010;51.028;4.170;2023-05-16T02:54:29;9.37;;;3.10;;
5967;SDS011;3010;51.028;4.170;2023-05-16T02:56:56;8.68;;;4.53;;
5967;SDS011;3010;51.028;4.170;2023-05-16T02:59:23;7.17;;;3.90;;
5967;SDS011;3010;51.028;4.170;2023-05-16T03:01:49;8.40;;;3.87;;
5967;SDS011;3010;51.028;4.170;2023-05-16T03:04:16;11.20;;;3.87;;
5967;SDS011;3010;51.028;4.170;2023-05-16T03:06:42;10.47;;;3.83;;
5967;SDS011;3010;51.028;4.170;2023-05-16T03:09:09;8.03;;;3.67;;
5967;SDS011;3010;51.028;4.170;2023-05-16T03:11:35;9.40;;;3.83;;
5967;SDS011;3010;51.028;4.170;2023-05-16T03:14:02;14.77;;;3.97;;
5967;SDS011;3010;51.028;4.170;2023-05-16T03:16:29;8.30;;;3.37;;
5967;SDS011;3010;51.028;4.170;2023-05-16T03:18:55;12.60;;;4.40;;
5967;SDS011;3010;51.028;4.170;2023-05-16T03:21:22;12.70;;;4.53;;
5967;SDS011;3010;51.028;4.170;2023-05-16T03:23:48;4.37;;;3.10;;
5967;SDS011;3010;51.028;4.170;2023-05-16T03:26:15;7.83;;;4.27;;
5967;SDS011;3010;51.028;4.170;2023-05-16T03:28:42;8.70;;;4.40;;
5967;SDS011;3010;51.028;4.170;2023-05-16T03:31:08;3.27;;;2.97;;
5967;SDS011;3010;51.028;4.170;2023-05-16T03:33:35;9.93;;;3.53;;
5967;SDS011;3010;51.028;4.170;2023-05-16T03:36:01;7.43;;;3.00;;
5967;SDS011;3010;51.028;4.170;2023-05-16T03:38:28;16.80;;;3.10;;
5967;SDS011;3010;51.028;4.170;2023-05-16T03:40:54;8.67;;;3.00;;
5967;SDS011;3010;51.028;4.170;2023-05-16T03:43:21;7.57;;;3.50;;
5967;SDS011;3010;51.028;4.170;2023-05-16T03:45:48;6.47;;;3.20;;
5967;SDS011;3010;51.028;4.170;2023-05-16T03:48:14;7.63;;;3.20;;
5967;SDS011;3010;51.028;4.170;2023-05-16T03:50:41;9.27;;;3.13;;
5967;SDS011;3010;51.028;4.170;2023-05-16T03:53:08;8.55;;;3.70;;
5967;SDS011;3010;51.028;4.170;2023-05-16T03:55:34;4.50;;;3.43;;
5967;SDS011;3010;51.028;4.170;2023-05-16T03:58:01;7.22;;;3.85;;
5967;SDS011;3010;51.028;4.170;2023-05-16T04:00:27;9.17;;;3.90;;
5967;SDS011;3010;51.028;4.170;2023-05-16T04:02:54;12.88;;;4.68;;
5967;SDS011;3010;51.028;4.170;2023-05-16T04:05:20;6.83;;;3.50;;
5967;SDS011;3010;51.028;4.170;2023-05-16T04:07:47;9.43;;;4.47;;
5967;SDS011;3010;51.028;4.170;2023-05-16T04:10:13;12.23;;;3.60;;
5967;SDS011;3010;51.028;4.170;2023-05-16T04:12:40;9.27;;;4.10;;
5967;SDS011;3010;51.028;4.170;2023-05-16T04:15:07;8.30;;;4.00;;
5967;SDS011;3010;51.028;4.170;2023-05-16T04:17:33;7.63;;;3.67;;
5967;SDS011;3010;51.028;4.170;2023-05-16T04:20:00;9.13;;;3.43;;
5967;SDS011;3010;51.028;4.170;2023-05-16T04:22:26;6.33;;;3.50;;
5967;SDS011;3010;51.028;4.170;2023-05-16T04:24:53;9.20;;;3.23;;
5967;SDS011;3010;51.028;4.170;2023-05-16T04:27:20;8.07;;;4.50;;
5967;SDS011;3010;51.028;4.170;2023-05-16T04:29:46;7.40;;;3.77;;
5967;SDS011;3010;51.028;4.170;2023-05-16T04:32:13;7.53;;;3.47;;
5967;SDS011;3010;51.028;4.170;2023-05-16T04:34:39;12.53;;;3.80;;
5967;SDS011;3010;51.028;4.170;2023-05-16T04:37:06;9.53;;;4.53;;
5967;SDS011;3010;51.028;4.170;2023-05-16T04:39:34;8.63;;;2.90;;
5967;SDS011;3010;51.028;4.170;2023-05-16T04:41:59;9.10;;;4.15;;
5967;SDS011;3010;51.028;4.170;2023-05-16T04:44:26;3.83;;;3.20;;
5967;SDS011;3010;51.028;4.170;2023-05-16T04:46:52;5.07;;;3.37;;
5967;SDS011;3010;51.028;4.170;2023-05-16T04:49:19;5.83;;;3.67;;
5967;SDS011;3010;51.028;4.170;2023-05-16T04:51:46;3.93;;;3.40;;
5967;SDS011;3010;51.028;4.170;2023-05-16T04:54:12;9.03;;;3.77;;
5967;SDS011;3010;51.028;4.170;2023-05-16T04:56:39;8.80;;;4.17;;
5967;SDS011;3010;51.028;4.170;2023-05-16T04:59:05;6.00;;;3.47;;
5967;SDS011;3010;51.028;4.170;2023-05-16T05:01:32;9.23;;;3.37;;
5967;SDS011;3010;51.028;4.170;2023-05-16T05:03:58;7.17;;;3.40;;
5967;SDS011;3010;51.028;4.170;2023-05-16T05:06:25;9.77;;;5.00;;
5967;SDS011;3010;51.028;4.170;2023-05-16T05:08:52;9.43;;;3.93;;
5967;SDS011;3010;51.028;4.170;2023-05-16T05:11:18;10.33;;;3.60;;
5967;SDS011;3010;51.028;4.170;2023-05-16T05:13:45;10.13;;;3.50;;
5967;SDS011;3010;51.028;4.170;2023-05-16T05:16:12;7.13;;;3.37;;
5967;SDS011;3010;51.028;4.170;2023-05-16T05:18:38;7.00;;;3.80;;
5967;SDS011;3010;51.028;4.170;2023-05-16T05:21:05;9.55;;;4.03;;
5967;SDS011;3010;51.028;4.170;2023-05-16T05:23:31;4.47;;;3.13;;
5967;SDS011;3010;51.028;4.170;2023-05-16T05:25:58;7.43;;;2.90;;
5967;SDS011;3010;51.028;4.170;2023-05-16T05:28:24;7.97;;;2.63;;
5967;SDS011;3010;51.028;4.170;2023-05-16T05:30:51;6.93;;;2.90;;
5967;SDS011;3010;51.028;4.170;2023-05-16T05:33:18;6.70;;;3.23;;
5967;SDS011;3010;51.028;4.170;2023-05-16T05:35:44;3.43;;;3.00;;
5967;SDS011;3010;51.028;4.170;2023-05-16T05:38:11;3.90;;;3.33;;
5967;SDS011;3010;51.028;4.170;2023-05-16T05:40:37;5.77;;;3.70;;
5967;SDS011;3010;51.028;4.170;2023-05-16T05:43:04;11.03;;;2.87;;
5967;SDS011;3010;51.028;4.170;2023-05-16T05:45:31;3.63;;;2.53;;
5967;SDS011;3010;51.028;4.170;2023-05-16T05:47:57;2.80;;;2.47;;
5967;SDS011;3010;51.028;4.170;2023-05-16T05:50:24;6.23;;;2.70;;
5967;SDS011;3010;51.028;4.170;2023-05-16T05:52:50;5.60;;;2.40;;
5967;SDS011;3010;51.028;4.170;2023-05-16T05:55:17;4.70;;;2.97;;
5967;SDS011;3010;51.028;4.170;2023-05-16T05:57:43;6.53;;;2.60;;
5967;SDS011;3010;51.028;4.170;2023-05-16T06:00:10;6.53;;;3.20;;
5967;SDS011;3010;51.028;4.170;2023-05-16T06:02:37;7.93;;;3.23;;
5967;SDS011;3010;51.028;4.170;2023-05-16T06:05:03;4.37;;;2.80;;
5967;SDS011;3010;51.028;4.170;2023-05-16T06:07:30;6.53;;;2.87;;
5967;SDS011;3010;51.028;4.170;2023-05-16T06:09:57;11.48;;;3.45;;
5967;SDS011;3010;51.028;4.170;2023-05-16T06:12:23;12.77;;;3.37;;
5967;SDS011;3010;51.028;4.170;2023-05-16T06:14:50;3.83;;;2.40;;
5967;SDS011;3010;51.028;4.170;2023-05-16T06:17:16;4.93;;;3.20;;
5967;SDS011;3010;51.028;4.170;2023-05-16T06:19:43;6.87;;;2.60;;
5967;SDS011;3010;51.028;4.170;2023-05-16T06:22:09;4.50;;;2.58;;
5967;SDS011;3010;51.028;4.170;2023-05-16T06:24:36;5.12;;;2.53;;
5967;SDS011;3010;51.028;4.170;2023-05-16T06:27:03;3.27;;;2.23;;
5967;SDS011;3010;51.028;4.170;2023-05-16T06:29:29;6.93;;;3.00;;
5967;SDS011;3010;51.028;4.170;2023-05-16T06:31:56;4.95;;;2.33;;
5967;SDS011;3010;51.028;4.170;2023-05-16T06:34:22;5.32;;;2.55;;
5967;SDS011;3010;51.028;4.170;2023-05-16T06:36:49;7.77;;;2.53;;
5967;SDS011;3010;51.028;4.170;2023-05-16T06:39:16;1.67;;;1.57;;
5967;SDS011;3010;51.028;4.170;2023-05-16T06:41:42;2.57;;;1.97;;
5967;SDS011;3010;51.028;4.170;2023-05-16T06:44:09;5.27;;;2.00;;
5967;SDS011;3010;51.028;4.170;2023-05-16T06:46:35;7.87;;;2.47;;
5967;SDS011;3010;51.028;4.170;2023-05-16T06:49:02;6.80;;;2.60;;
5967;SDS011;3010;51.028;4.170;2023-05-16T06:51:29;6.80;;;2.27;;
5967;SDS011;3010;51.028;4.170;2023-05-16T06:53:55;2.97;;;2.03;;
5967;SDS011;3010;51.028;4.170;2023-05-16T06:56:22;2.63;;;1.73;;
5967;SDS011;3010;51.028;4.170;2023-05-16T06:58:49;3.23;;;1.90;;
5967;SDS011;3010;51.028;4.170;2023-05-16T07:01:15;4.90;;;2.20;;
5967;SDS011;3010;51.028;4.170;2023-05-16T07:03:41;3.70;;;1.67;;
5967;SDS011;3010;51.028;4.170;2023-05-16T07:06:08;3.53;;;2.00;;
5967;SDS011;3010;51.028;4.170;2023-05-16T07:08:35;5.33;;;2.00;;
5967;SDS011;3010;51.028;4.170;2023-05-16T07:11:01;5.30;;;2.80;;
5967;SDS011;3010;51.028;4.170;2023-05-16T07:13:28;5.82;;;2.10;;
5967;SDS011;3010;51.028;4.170;2023-05-16T07:15:54;5.17;;;2.47;;
5967;SDS011;3010;51.028;4.170;2023-05-16T07:18:21;2.87;;;1.83;;
5967;SDS011;3010;51.028;4.170;2023-05-16T07:20:48;4.77;;;2.20;;
5967;SDS011;3010;51.028;4.170;2023-05-16T07:23:14;3.93;;;2.07;;
5967;SDS011;3010;51.028;4.170;2023-05-16T07:25:41;5.30;;;2.00;;
5967;SDS011;3010;51.028;4.170;2023-05-16T07:28:07;3.60;;;2.03;;
5967;SDS011;3010;51.028;4.170;2023-05-16T07:30:34;6.23;;;2.27;;
5967;SDS011;3010;51.028;4.170;2023-05-16T07:33:00;3.80;;;1.87;;
5967;SDS011;3010;51.028;4.170;2023-05-16T07:35:27;2.43;;;1.60;;
5967;SDS011;3010;51.028;4.170;2023-05-16T07:37:54;5.00;;;1.87;;
5967;SDS011;3010;51.028;4.170;2023-05-16T07:40:20;4.30;;;1.80;;
5967;SDS011;3010;51.028;4.170;2023-05-16T07:42:47;6.10;;;1.90;;
5967;SDS011;3010;51.028;4.170;2023-05-16T07:45:13;5.27;;;1.70;;
5967;SDS011;3010;51.028;4.170;2023-05-16T07:47:40;4.40;;;1.50;;
5967;SDS011;3010;51.028;4.170;2023-05-16T07:50:07;2.47;;;1.37;;
5967;SDS011;3010;51.028;4.170;2023-05-16T07:52:33;2.50;;;1.50;;
5967;SDS011;3010;51.028;4.170;2023-05-16T07:55:00;2.63;;;1.20;;
5967;SDS011;3010;51.028;4.170;2023-05-16T07:57:26;3.20;;;1.80;;
5967;SDS011;3010;51.028;4.170;2023-05-16T07:59:53;3.83;;;1.37;;
5967;SDS011;3010;51.028;4.170;2023-05-16T08:02:20;2.93;;;1.33;;
5967;SDS011;3010;51.028;4.170;2023-05-16T08:04:46;1.50;;;1.50;;
5967;SDS011;3010;51.028;4.170;2023-05-16T08:07:13;2.37;;;2.17;;
5967;SDS011;3010;51.028;4.170;2023-05-16T08:09:39;3.70;;;2.00;;
5967;SDS011;3010;51.028;4.170;2023-05-16T08:12:06;1.60;;;1.50;;
5967;SDS011;3010;51.028;4.170;2023-05-16T08:14:32;3.73;;;1.53;;
5967;SDS011;3010;51.028;4.170;2023-05-16T08:16:59;5.22;;;1.30;;
5967;SDS011;3010;51.028;4.170;2023-05-16T08:19:26;3.08;;;1.40;;
5967;SDS011;3010;51.028;4.170;2023-05-16T08:21:52;2.00;;;1.30;;
5967;SDS011;3010;51.028;4.170;2023-05-16T08:24:19;1.50;;;1.40;;
5967;SDS011;3010;51.028;4.170;2023-05-16T08:26:45;2.43;;;1.90;;
5967;SDS011;3010;51.028;4.170;2023-05-16T08:29:12;1.60;;;1.37;;
5967;SDS011;3010;51.028;4.170;2023-05-16T08:31:39;1.87;;;1.50;;
5967;SDS011;3010;51.028;4.170;2023-05-16T08:34:05;2.30;;;2.10;;
5967;SDS011;3010;51.028;4.170;2023-05-16T08:36:32;1.33;;;1.30;;
5967;SDS011;3010;51.028;4.170;2023-05-16T08:38:58;2.00;;;1.90;;
5967;SDS011;3010;51.028;4.170;2023-05-16T08:41:25;1.17;;;1.17;;
5967;SDS011;3010;51.028;4.170;2023-05-16T08:43:51;1.43;;;1.33;;
5967;SDS011;3010;51.028;4.170;2023-05-16T08:46:21;6.97;;;1.73;;
5967;SDS011;3010;51.028;4.170;2023-05-16T08:48:45;1.40;;;1.30;;
5967;SDS011;3010;51.028;4.170;2023-05-16T08:51:11;3.10;;;1.77;;
5967;SDS011;3010;51.028;4.170;2023-05-16T08:53:43;1.33;;;1.33;;
5967;SDS011;3010;51.028;4.170;2023-05-16T08:56:08;4.13;;;1.60;;
5967;SDS011;3010;51.028;4.170;2023-05-16T08:58:34;2.63;;;1.33;;
5967;SDS011;3010;51.028;4.170;2023-05-16T09:01:01;1.40;;;1.33;;
5967;SDS011;3010;51.028;4.170;2023-05-16T09:03:27;1.73;;;1.20;;
5967;SDS011;3010;51.028;4.170;2023-05-16T09:05:54;3.90;;;1.93;;
5967;SDS011;3010;51.028;4.170;2023-05-16T09:08:20;1.60;;;1.50;;
5967;SDS011;3010;51.028;4.170;2023-05-16T09:10:47;1.77;;;1.67;;
5967;SDS011;3010;51.028;4.170;2023-05-16T09:13:14;2.17;;;1.10;;
5967;SDS011;3010;51.028;4.170;2023-05-16T09:15:40;1.47;;;1.27;;
5967;SDS011;3010;51.028;4.170;2023-05-16T09:18:10;1.40;;;1.27;;
5967;SDS011;3010;51.028;4.170;2023-05-16T09:20:33;2.97;;;1.83;;
5967;SDS011;3010;51.028;4.170;2023-05-16T09:23:00;1.20;;;1.20;;
5967;SDS011;3010;51.028;4.170;2023-05-16T09:25:27;1.50;;;1.27;;
5967;SDS011;3010;51.028;4.170;2023-05-16T09:27:53;1.77;;;1.17;;
5967;SDS011;3010;51.028;4.170;2023-05-16T09:30:20;6.00;;;2.67;;
5967;SDS011;3010;51.028;4.170;2023-05-16T09:32:52;2.37;;;1.50;;
5967;SDS011;3010;51.028;4.170;2023-05-16T09:35:19;2.50;;;1.37;;
5967;SDS011;3010;51.028;4.170;2023-05-16T09:37:46;2.43;;;1.23;;
5967;SDS011;3010;51.028;4.170;2023-05-16T09:40:12;2.03;;;1.20;;
5967;SDS011;3010;51.028;4.170;2023-05-16T09:42:38;1.30;;;1.20;;
5967;SDS011;3010;51.028;4.170;2023-05-16T09:45:05;3.03;;;1.20;;
5967;SDS011;3010;51.028;4.170;2023-05-16T09:47:32;1.83;;;1.48;;
5967;SDS011;3010;51.028;4.170;2023-05-16T09:49:58;1.47;;;1.13;;
5967;SDS011;3010;51.028;4.170;2023-05-16T09:52:28;4.10;;;1.57;;
5967;SDS011;3010;51.028;4.170;2023-05-16T09:54:54;2.67;;;1.50;;
5967;SDS011;3010;51.028;4.170;2023-05-16T09:57:21;3.43;;;1.70;;
5967;SDS011;3010;51.028;4.170;2023-05-16T09:59:48;5.03;;;1.40;;
5967;SDS011;3010;51.028;4.170;2023-05-16T10:02:14;5.07;;;1.30;;
5967;SDS011;3010;51.028;4.170;2023-05-16T10:04:41;2.73;;;1.23;;
5967;SDS011;3010;51.028;4.170;2023-05-16T10:07:07;4.67;;;1.60;;
5967;SDS011;3010;51.028;4.170;2023-05-16T10:09:34;1.67;;;1.57;;
5967;SDS011;3010;51.028;4.170;2023-05-16T10:12:01;2.23;;;1.40;;
5967;SDS011;3010;51.028;4.170;2023-05-16T10:14:27;2.53;;;1.83;;
5967;SDS011;3010;51.028;4.170;2023-05-16T10:16:54;2.30;;;1.10;;
5967;SDS011;3010;51.028;4.170;2023-05-16T10:19:20;1.53;;;1.03;;
5967;SDS011;3010;51.028;4.170;2023-05-16T10:21:48;1.90;;;1.40;;
5967;SDS011;3010;51.028;4.170;2023-05-16T10:24:13;2.30;;;1.50;;
5967;SDS011;3010;51.028;4.170;2023-05-16T10:26:40;1.93;;;1.53;;
5967;SDS011;3010;51.028;4.170;2023-05-16T10:29:07;2.93;;;1.17;;
5967;SDS011;3010;51.028;4.170;2023-05-16T10:31:33;2.03;;;1.23;;
5967;SDS011;3010;51.028;4.170;2023-05-16T10:34:00;1.70;;;1.23;;
5967;SDS011;3010;51.028;4.170;2023-05-16T10:36:26;1.43;;;1.37;;
5967;SDS011;3010;51.028;4.170;2023-05-16T10:38:53;1.47;;;1.37;;
5967;SDS011;3010;51.028;4.170;2023-05-16T10:41:20;4.23;;;1.23;;
5967;SDS011;3010;51.028;4.170;2023-05-16T10:43:55;2.47;;;1.20;;
5967;SDS011;3010;51.028;4.170;2023-05-16T10:46:13;2.50;;;1.20;;
5967;SDS011;3010;51.028;4.170;2023-05-16T10:48:40;1.00;;;0.93;;
5967;SDS011;3010;51.028;4.170;2023-05-16T10:53:51;1.57;;;1.47;;
5967;SDS011;3010;51.028;4.170;2023-05-16T10:56:24;4.37;;;1.53;;
5967;SDS011;3010;51.028;4.170;2023-05-16T10:58:51;5.27;;;1.60;;
5967;SDS011;3010;51.028;4.170;2023-05-16T11:01:17;2.07;;;1.23;;
5967;SDS011;3010;51.028;4.170;2023-05-16T11:06:28;2.43;;;1.50;;
5967;SDS011;3010;51.028;4.170;2023-05-16T11:14:08;2.95;;;1.30;;
5967;SDS011;3010;51.028;4.170;2023-05-16T11:16:34;1.40;;;1.30;;
5967;SDS011;3010;51.028;4.170;2023-05-16T11:19:04;2.30;;;1.23;;
5967;SDS011;3010;51.028;4.170;2023-05-16T11:24:30;2.07;;;1.23;;
5967;SDS011;3010;51.028;4.170;2023-05-16T11:26:58;4.90;;;1.50;;
5967;SDS011;3010;51.028;4.170;2023-05-16T11:29:23;2.43;;;1.20;;
5967;SDS011;3010;51.028;4.170;2023-05-16T11:31:51;1.53;;;1.10;;
5967;SDS011;3010;51.028;4.170;2023-05-16T11:34:16;3.57;;;1.43;;
5967;SDS011;3010;51.028;4.170;2023-05-16T11:36:43;2.17;;;1.27;;
5967;SDS011;3010;51.028;4.170;2023-05-16T11:39:10;2.47;;;1.10;;
5967;SDS011;3010;51.028;4.170;2023-05-16T11:41:37;1.17;;;1.17;;
5967;SDS011;3010;51.028;4.170;2023-05-16T11:44:03;5.03;;;1.30;;
5967;SDS011;3010;51.028;4.170;2023-05-16T11:46:29;1.00;;;1.00;;
5967;SDS011;3010;51.028;4.170;2023-05-16T11:48:56;2.20;;;1.43;;
5967;SDS011;3010;51.028;4.170;2023-05-16T11:51:22;1.80;;;1.70;;
5967;SDS011;3010;51.028;4.170;2023-05-16T11:53:49;1.27;;;1.10;;
5967;SDS011;3010;51.028;4.170;2023-05-16T11:56:16;2.50;;;1.30;;
5967;SDS011;3010;51.028;4.170;2023-05-16T11:58:42;2.40;;;1.23;;
5967;SDS011;3010;51.028;4.170;2023-05-16T12:01:09;2.80;;;1.00;;
5967;SDS011;3010;51.028;4.170;2023-05-16T12:03:35;1.50;;;1.40;;
5967;SDS011;3010;51.028;4.170;2023-05-16T12:06:02;2.50;;;1.10;;
5967;SDS011;3010;51.028;4.170;2023-05-16T12:08:29;1.27;;;1.10;;
5967;SDS011;3010;51.028;4.170;2023-05-16T12:10:55;1.90;;;1.33;;
5967;SDS011;3010;51.028;4.170;2023-05-16T12:13:22;4.17;;;1.20;;
5967;SDS011;3010;51.028;4.170;2023-05-16T12:15:48;1.00;;;1.00;;
5967;SDS011;3010;51.028;4.170;2023-05-16T12:18:15;3.27;;;1.20;;
5967;SDS011;3010;51.028;4.170;2023-05-16T12:20:42;0.90;;;0.90;;
5967;SDS011;3010;51.028;4.170;2023-05-16T12:23:11;2.27;;;1.10;;
5967;SDS011;3010;51.028;4.170;2023-05-16T12:25:37;2.20;;;1.10;;
5967;SDS011;3010;51.028;4.170;2023-05-16T12:28:07;1.90;;;1.07;;
5967;SDS011;3010;51.028;4.170;2023-05-16T12:30:33;3.13;;;1.30;;
5967;SDS011;3010;51.028;4.170;2023-05-16T12:33:01;2.33;;;1.33;;
5967;SDS011;3010;51.028;4.170;2023-05-16T12:35:30;2.07;;;1.20;;
5967;SDS011;3010;51.028;4.170;2023-05-16T12:37:56;2.10;;;1.27;;
5967;SDS011;3010;51.028;4.170;2023-05-16T12:40:23;3.72;;;1.15;;
5967;SDS011;3010;51.028;4.170;2023-05-16T12:42:49;1.37;;;1.07;;
5967;SDS011;3010;51.028;4.170;2023-05-16T12:45:16;1.17;;;1.07;;
5967;SDS011;3010;51.028;4.170;2023-05-16T12:47:43;4.03;;;1.10;;
5967;SDS011;3010;51.028;4.170;2023-05-16T12:50:09;2.10;;;0.90;;
5967;SDS011;3010;51.028;4.170;2023-05-16T12:52:36;1.20;;;1.10;;
5967;SDS011;3010;51.028;4.170;2023-05-16T12:55:02;1.13;;;1.03;;
5967;SDS011;3010;51.028;4.170;2023-05-16T12:57:29;0.90;;;0.90;;
5967;SDS011;3010;51.028;4.170;2023-05-16T12:59:55;1.17;;;1.10;;
5967;SDS011;3010;51.028;4.170;2023-05-16T13:02:22;0.93;;;0.93;;
5967;SDS011;3010;51.028;4.170;2023-05-16T13:04:48;1.83;;;1.20;;
5967;SDS011;3010;51.028;4.170;2023-05-16T13:07:15;1.40;;;1.20;;
5967;SDS011;3010;51.028;4.170;2023-05-16T13:09:42;1.40;;;1.00;;
5967;SDS011;3010;51.028;4.170;2023-05-16T13:12:08;2.50;;;1.00;;
5967;SDS011;3010;51.028;4.170;2023-05-16T13:14:35;2.67;;;1.20;;
5967;SDS011;3010;51.028;4.170;2023-05-16T13:17:01;5.37;;;1.50;;
5967;SDS011;3010;51.028;4.170;2023-05-16T13:19:28;3.27;;;1.10;;
5967;SDS011;3010;51.028;4.170;2023-05-16T13:21:55;1.40;;;1.30;;
5967;SDS011;3010;51.028;4.170;2023-05-16T13:24:21;1.83;;;1.20;;
5967;SDS011;3010;51.028;4.170;2023-05-16T13:26:48;2.17;;;1.13;;
5967;SDS011;3010;51.028;4.170;2023-05-16T13:29:14;1.63;;;1.40;;
5967;SDS011;3010;51.028;4.170;2023-05-16T13:31:41;2.40;;;1.23;;
5967;SDS011;3010;51.028;4.170;2023-05-16T13:34:08;2.50;;;1.50;;
5967;SDS011;3010;51.028;4.170;2023-05-16T13:36:34;2.13;;;1.50;;
5967;SDS011;3010;51.028;4.170;2023-05-16T13:39:01;2.77;;;1.07;;
5967;SDS011;3010;51.028;4.170;2023-05-16T13:41:27;1.47;;;1.27;;
5967;SDS011;3010;51.028;4.170;2023-05-16T13:43:54;2.73;;;1.50;;
5967;SDS011;3010;51.028;4.170;2023-05-16T13:46:21;1.60;;;1.17;;
5967;SDS011;3010;51.028;4.170;2023-05-16T13:48:47;1.23;;;1.13;;
5967;SDS011;3010;51.028;4.170;2023-05-16T13:51:14;1.47;;;1.17;;
5967;SDS011;3010;51.028;4.170;2023-05-16T13:53:40;2.43;;;1.07;;
5967;SDS011;3010;51.028;4.170;2023-05-16T13:56:07;1.50;;;1.40;;
5967;SDS011;3010;51.028;4.170;2023-05-16T13:58:33;3.23;;;1.17;;
5967;SDS011;3010;51.028;4.170;2023-05-16T14:01:00;2.30;;;1.53;;
5967;SDS011;3010;51.028;4.170;2023-05-16T14:03:27;1.50;;;1.23;;
5967;SDS011;3010;51.028;4.170;2023-05-16T14:05:53;1.77;;;1.27;;
5967;SDS011;3010;51.028;4.170;2023-05-16T14:08:20;1.63;;;0.80;;
5967;SDS011;3010;51.028;4.170;2023-05-16T14:10:46;1.50;;;1.00;;
5967;SDS011;3010;51.028;4.170;2023-05-16T14:13:13;2.40;;;1.37;;
5967;SDS011;3010;51.028;4.170;2023-05-16T14:15:40;2.43;;;1.10;;
5967;SDS011;3010;51.028;4.170;2023-05-16T14:18:06;1.63;;;1.30;;
5967;SDS011;3010;51.028;4.170;2023-05-16T14:20:33;2.93;;;1.10;;
5967;SDS011;3010;51.028;4.170;2023-05-16T14:22:59;1.90;;;1.10;;
5967;SDS011;3010;51.028;4.170;2023-05-16T14:25:26;1.10;;;1.10;;
5967;SDS011;3010;51.028;4.170;2023-05-16T14:27:53;2.37;;;1.50;;
5967;SDS011;3010;51.028;4.170;2023-05-16T14:30:19;1.70;;;1.20;;
5967;SDS011;3010;51.028;4.170;2023-05-16T14:32:46;1.23;;;1.00;;
5967;SDS011;3010;51.028;4.170;2023-05-16T14:35:12;2.43;;;1.47;;
5967;SDS011;3010;51.028;4.170;2023-05-16T14:37:39;4.27;;;1.07;;
5967;SDS011;3010;51.028;4.170;2023-05-16T14:40:06;2.30;;;1.20;;
5967;SDS011;3010;51.028;4.170;2023-05-16T14:42:32;1.27;;;1.20;;
5967;SDS011;3010;51.028;4.170;2023-05-16T14:44:59;1.10;;;1.03;;
5967;SDS011;3010;51.028;4.170;2023-05-16T14:47:25;1.40;;;1.30;;
5967;SDS011;3010;51.028;4.170;2023-05-16T14:49:52;3.37;;;1.13;;
5967;SDS011;3010;51.028;4.170;2023-05-16T14:52:19;1.27;;;1.00;;
5967;SDS011;3010;51.028;4.170;2023-05-16T14:54:45;1.80;;;1.10;;
5967;SDS011;3010;51.028;4.170;2023-05-16T14:57:12;1.03;;;0.93;;
5967;SDS011;3010;51.028;4.170;2023-05-16T14:59:38;1.73;;;1.27;;
5967;SDS011;3010;51.028;4.170;2023-05-16T15:02:05;1.40;;;1.20;;
5967;SDS011;3010;51.028;4.170;2023-05-16T15:04:31;2.30;;;1.33;;
5967;SDS011;3010;51.028;4.170;2023-05-16T15:06:58;3.97;;;1.80;;
5967;SDS011;3010;51.028;4.170;2023-05-16T15:09:25;3.20;;;1.20;;
5967;SDS011;3010;51.028;4.170;2023-05-16T15:11:51;1.00;;;1.00;;
5967;SDS011;3010;51.028;4.170;2023-05-16T15:14:18;1.53;;;1.20;;
5967;SDS011;3010;51.028;4.170;2023-05-16T15:16:44;1.00;;;1.00;;
5967;SDS011;3010;51.028;4.170;2023-05-16T15:19:11;2.03;;;1.83;;
5967;SDS011;3010;51.028;4.170;2023-05-16T15:21:38;3.63;;;1.33;;
5967;SDS011;3010;51.028;4.170;2023-05-16T15:24:04;1.70;;;1.30;;
5967;SDS011;3010;51.028;4.170;2023-05-16T15:26:31;1.23;;;1.07;;
5967;SDS011;3010;51.028;4.170;2023-05-16T15:28:57;2.30;;;1.13;;
5967;SDS011;3010;51.028;4.170;2023-05-16T15:31:24;1.10;;;1.10;;